createdAt,value
2018-02-22T00:01:40.106Z,16.73
2018-02-22T00:04:10.309Z,15.00
2018-02-22T00:06:38.563Z,15.07
2018-02-22T00:09:06.829Z,15.57
2018-02-22T00:11:35.082Z,16.20
2018-02-22T00:14:03.337Z,15.77
2018-02-22T00:16:31.961Z,15.03
2018-02-22T00:19:00.209Z,15.50
2018-02-22T00:21:28.461Z,15.90
2018-02-22T00:23:57.493Z,16.30
2018-02-22T00:26:25.750Z,14.83
2018-02-22T00:28:54.761Z,13.90
2018-02-22T00:31:23.039Z,15.90
2018-02-22T00:33:51.291Z,14.63
2018-02-22T00:36:19.538Z,15.97
2018-02-22T00:38:47.867Z,15.13
2018-02-22T00:41:16.118Z,15.30
2018-02-22T00:43:44.371Z,15.33
2018-02-22T00:46:12.826Z,15.90
2018-02-22T00:48:41.082Z,16.90
2018-02-22T00:51:09.339Z,14.83
2018-02-22T00:53:37.615Z,14.53
2018-02-22T00:56:06.630Z,15.27
2018-02-22T00:58:34.995Z,16.13
2018-02-22T01:01:03.725Z,13.47
2018-02-22T01:03:31.974Z,15.10
2018-02-22T01:06:00.229Z,15.63
2018-02-22T01:08:29.739Z,15.13
2018-02-22T01:10:58.754Z,14.03
2018-02-22T01:13:27.011Z,15.20
2018-02-22T01:15:55.288Z,13.93
2018-02-22T01:18:23.538Z,14.40
2018-02-22T01:20:51.790Z,13.47
2018-02-22T01:23:20.475Z,14.80
2018-02-22T01:25:48.711Z,13.90
2018-02-22T01:28:16.963Z,14.17
2018-02-22T01:30:45.239Z,14.63
2018-02-22T01:33:13.495Z,14.07
2018-02-22T01:35:41.742Z,14.60
2018-02-22T01:38:10.015Z,13.90
2018-02-22T01:40:38.266Z,15.27
2018-02-22T01:43:06.518Z,13.77
2018-02-22T01:45:34.847Z,16.77
2018-02-22T01:48:03.226Z,13.10
2018-02-22T01:50:31.486Z,14.50
2018-02-22T01:52:59.762Z,14.43
2018-02-22T01:55:28.019Z,14.37
2018-02-22T01:57:57.026Z,13.97
2018-02-22T02:00:25.315Z,14.60
2018-02-22T02:02:53.563Z,14.70
2018-02-22T02:05:21.813Z,14.50
2018-02-22T02:07:50.295Z,14.63
2018-02-22T02:10:19.322Z,14.43
2018-02-22T02:12:47.579Z,14.47
2018-02-22T02:15:15.854Z,14.20
2018-02-22T02:17:44.323Z,14.93
2018-02-22T02:20:12.576Z,13.43
2018-02-22T02:22:40.851Z,14.10
2018-02-22T02:25:09.103Z,13.87
2018-02-22T02:27:37.354Z,13.80
2018-02-22T02:30:05.991Z,13.00
2018-02-22T02:32:34.239Z,13.10
2018-02-22T02:35:02.487Z,12.97
2018-02-22T02:37:30.764Z,13.80
2018-02-22T02:39:59.786Z,13.07
2018-02-22T02:42:28.034Z,14.37
2018-02-22T02:44:56.312Z,14.10
2018-02-22T02:47:24.565Z,14.10
2018-02-22T02:49:53.148Z,13.17
2018-02-22T02:52:21.703Z,13.53
2018-02-22T02:54:50.039Z,13.83
2018-02-22T02:57:19.348Z,13.60
2018-02-22T02:59:49.555Z,13.03
2018-02-22T03:02:18.572Z,13.70
2018-02-22T03:04:46.819Z,14.60
2018-02-22T03:07:15.108Z,12.43
2018-02-22T03:09:43.361Z,14.40
2018-02-22T03:12:11.607Z,12.90
2018-02-22T03:14:40.174Z,13.00
2018-02-22T03:17:08.431Z,12.93
2018-02-22T03:19:36.675Z,13.67
2018-02-22T03:22:04.952Z,13.20
2018-02-22T03:24:33.202Z,11.93
2018-02-22T03:27:01.451Z,12.70
2018-02-22T03:29:29.726Z,13.00
2018-02-22T03:31:58.090Z,12.83
2018-02-22T03:34:26.288Z,13.00
2018-02-22T03:36:54.627Z,11.37
2018-02-22T03:39:23.646Z,13.57
2018-02-22T03:41:51.898Z,12.40
2018-02-22T03:44:20.174Z,11.27
2018-02-22T03:46:48.434Z,11.53
2018-02-22T03:49:16.689Z,12.17
2018-02-22T03:51:45.554Z,10.70
2018-02-22T03:54:13.803Z,11.73
2018-02-22T03:56:42.058Z,11.03
2018-02-22T03:59:10.718Z,10.77
2018-02-22T04:01:38.972Z,12.20
2018-02-22T04:04:07.214Z,11.57
2018-02-22T04:06:35.495Z,12.10
2018-02-22T04:09:04.516Z,11.30
2018-02-22T04:11:32.766Z,11.47
2018-02-22T04:14:01.038Z,12.33
2018-02-22T04:16:29.286Z,12.30
2018-02-22T04:18:57.534Z,12.10
2018-02-22T04:21:26.103Z,10.77
2018-02-22T04:23:54.350Z,11.27
2018-02-22T04:26:22.606Z,11.63
2018-02-22T04:28:50.902Z,12.87
2018-02-22T04:31:19.938Z,12.13
2018-02-22T04:33:48.174Z,12.90
2018-02-22T04:36:16.450Z,12.17
2018-02-22T04:38:44.702Z,11.90
2018-02-22T04:41:12.950Z,11.90
2018-02-22T04:43:41.544Z,11.97
2018-02-22T04:46:09.796Z,12.00
2018-02-22T04:48:38.048Z,12.87
2018-02-22T04:51:06.682Z,13.00
2018-02-22T04:53:35.315Z,12.60
2018-02-22T04:56:04.334Z,12.37
2018-02-22T04:58:32.609Z,12.20
2018-02-22T05:01:01.035Z,11.97
2018-02-22T05:03:29.300Z,13.53
2018-02-22T05:05:57.876Z,13.87
2018-02-22T05:08:26.122Z,11.93
2018-02-22T05:10:54.376Z,13.20
2018-02-22T05:13:22.659Z,11.77
2018-02-22T05:15:51.666Z,12.10
2018-02-22T05:18:19.914Z,12.53
2018-02-22T05:20:48.959Z,10.90
2018-02-22T05:23:17.215Z,12.37
2018-02-22T05:25:45.466Z,12.43
2018-02-22T05:28:14.652Z,14.40
2018-02-22T05:30:43.083Z,14.27
2018-02-22T05:33:11.330Z,13.43
2018-02-22T05:35:39.606Z,14.20
2018-02-22T05:38:08.626Z,13.53
2018-02-22T05:40:36.877Z,13.27
2018-02-22T05:43:05.355Z,13.47
2018-02-22T05:45:34.374Z,14.53
2018-02-22T05:48:02.627Z,15.63
2018-02-22T05:50:31.123Z,13.10
2018-02-22T05:52:59.375Z,14.03
2018-02-22T05:55:27.749Z,13.00
2018-02-22T05:57:56.022Z,14.13
2018-02-22T06:00:24.270Z,14.80
2018-02-22T06:02:52.543Z,14.13
2018-02-22T06:05:20.823Z,15.23
2018-02-22T06:07:49.092Z,14.70
2018-02-22T06:10:17.330Z,14.30
2018-02-22T06:12:45.958Z,14.33
2018-02-22T06:15:14.208Z,13.63
2018-02-22T06:17:42.458Z,14.30
2018-02-22T06:20:10.743Z,12.77
2018-02-22T06:22:39.754Z,14.57
2018-02-22T06:25:08.006Z,12.33
2018-02-22T06:27:36.288Z,14.33
2018-02-22T06:30:04.541Z,14.53
2018-02-22T06:32:32.795Z,13.57
2018-02-22T06:35:01.375Z,14.17
2018-02-22T06:37:29.619Z,14.07
2018-02-22T06:39:57.879Z,13.80
2018-02-22T06:42:26.151Z,13.83
2018-02-22T06:44:55.167Z,13.63
2018-02-22T06:47:23.527Z,13.50
2018-02-22T06:49:52.879Z,13.37
2018-02-22T06:52:21.270Z,14.07
2018-02-22T06:54:49.515Z,13.13
2018-02-22T06:57:18.618Z,12.33
2018-02-22T06:59:46.876Z,13.10
2018-02-22T07:02:15.131Z,13.07
2018-02-22T07:04:43.410Z,12.60
2018-02-22T07:07:12.427Z,13.50
2018-02-22T07:09:40.682Z,13.40
2018-02-22T07:12:08.959Z,13.40
2018-02-22T07:14:37.211Z,12.83
2018-02-22T07:17:05.467Z,12.20
2018-02-22T07:19:34.038Z,15.53
2018-02-22T07:22:02.526Z,13.40
2018-02-22T07:24:30.771Z,12.67
2018-02-22T07:26:59.080Z,13.60
2018-02-22T07:29:27.315Z,12.67
2018-02-22T07:31:55.572Z,12.30
2018-02-22T07:34:24.628Z,12.23
2018-02-22T07:36:52.875Z,13.43
2018-02-22T07:39:21.293Z,11.43
2018-02-22T07:41:49.755Z,11.00
2018-02-22T07:44:18.010Z,11.33
2018-02-22T07:46:46.271Z,12.17
2018-02-22T07:49:14.550Z,11.03
2018-02-22T07:51:42.800Z,13.60
2018-02-22T07:54:11.081Z,10.70
2018-02-22T07:56:39.361Z,11.03
2018-02-22T07:59:08.675Z,10.30
2018-02-22T08:01:37.687Z,11.10
2018-02-22T08:04:06.107Z,9.87
2018-02-22T08:06:34.342Z,11.07
2018-02-22T08:09:02.591Z,10.63
2018-02-22T08:11:30.867Z,8.67
2018-02-22T08:13:59.886Z,10.50
2018-02-22T08:16:28.139Z,10.37
2018-02-22T08:18:56.414Z,9.20
2018-02-22T08:21:24.666Z,8.77
2018-02-22T08:23:53.051Z,11.10
2018-02-22T08:26:21.495Z,7.60
2018-02-22T08:28:49.739Z,9.10
2018-02-22T08:31:17.983Z,10.00
2018-02-22T08:33:47.028Z,9.67
2018-02-22T08:36:15.279Z,8.50
2018-02-22T08:38:44.290Z,7.70
2018-02-22T08:41:12.566Z,8.60
2018-02-22T08:43:40.810Z,9.23
2018-02-22T08:46:09.057Z,9.27
2018-02-22T08:48:37.527Z,7.00
2018-02-22T08:51:05.774Z,7.43
2018-02-22T08:53:34.023Z,7.90
2018-02-22T08:56:03.067Z,6.17
2018-02-22T08:58:31.309Z,8.47
2018-02-22T09:01:00.922Z,6.37
2018-02-22T09:03:29.960Z,7.63
2018-02-22T09:05:58.203Z,8.00
2018-02-22T09:08:26.635Z,7.70
2018-02-22T09:10:55.086Z,7.23
2018-02-22T09:13:23.331Z,6.40
2018-02-22T09:15:51.575Z,7.43
2018-02-22T09:18:19.847Z,7.47
2018-02-22T09:20:48.095Z,6.33
2018-02-22T09:23:16.334Z,8.23
2018-02-22T09:25:45.481Z,7.57
2018-02-22T09:28:13.707Z,7.13
2018-02-22T09:30:42.718Z,7.00
2018-02-22T09:33:11.371Z,6.73
2018-02-22T09:35:39.615Z,7.30
2018-02-22T09:38:07.855Z,8.00
2018-02-22T09:40:36.132Z,6.97
2018-02-22T09:43:04.370Z,7.50
2018-02-22T09:45:32.616Z,6.87
2018-02-22T09:48:00.881Z,6.43
2018-02-22T09:50:29.130Z,40.73
2018-02-22T09:52:57.382Z,6.80
2018-02-22T09:55:25.706Z,7.77
2018-02-22T09:57:53.953Z,5.93
2018-02-22T10:00:22.954Z,6.63
2018-02-22T10:02:51.443Z,6.37
2018-02-22T10:05:19.875Z,5.60
2018-02-22T10:07:48.099Z,6.60
2018-02-22T10:10:16.363Z,5.97
2018-02-22T10:12:44.619Z,6.33
2018-02-22T10:15:12.861Z,6.20
2018-02-22T10:17:41.644Z,6.43
2018-02-22T10:20:09.891Z,5.83
2018-02-22T10:22:38.131Z,6.17
2018-02-22T10:25:06.398Z,6.23
2018-02-22T10:27:34.648Z,6.97
2018-02-22T10:30:02.891Z,5.70
2018-02-22T10:32:31.156Z,4.97
2018-02-22T10:34:59.399Z,4.80
2018-02-22T10:37:27.642Z,5.87
2018-02-22T10:39:56.126Z,6.17
2018-02-22T10:42:24.365Z,6.10
2018-02-22T10:44:52.609Z,5.77
2018-02-22T10:47:20.883Z,5.90
2018-02-22T10:49:49.135Z,5.10
2018-02-22T10:52:17.377Z,6.60
2018-02-22T10:54:46.407Z,6.50
2018-02-22T10:57:14.647Z,6.37
2018-02-22T10:59:42.900Z,5.23
2018-02-22T11:02:17.143Z,6.10
2018-02-22T11:04:46.238Z,5.40
2018-02-22T11:07:14.491Z,4.70
2018-02-22T11:09:43.530Z,5.40
2018-02-22T11:12:11.780Z,5.50
2018-02-22T11:14:41.958Z,5.80
2018-02-22T11:17:10.231Z,5.80
2018-02-22T11:19:38.474Z,5.00
2018-02-22T11:22:06.722Z,5.70
2018-02-22T11:24:35.187Z,5.03
2018-02-22T11:27:03.442Z,6.23
2018-02-22T11:29:31.699Z,5.70
2018-02-22T11:31:59.975Z,5.40
2018-02-22T11:34:28.247Z,5.43
2018-02-22T11:36:56.493Z,4.90
2018-02-22T11:39:25.527Z,4.80
2018-02-22T11:41:53.770Z,4.90
2018-02-22T11:44:22.023Z,7.00
2018-02-22T11:46:50.687Z,5.50
2018-02-22T11:49:18.945Z,5.60
2018-02-22T11:51:47.190Z,5.80
2018-02-22T11:54:16.230Z,6.13
2018-02-22T11:56:44.503Z,5.30
2018-02-22T11:59:12.750Z,5.33
2018-02-22T12:01:41.024Z,5.50
2018-02-22T12:04:10.035Z,6.07
2018-02-22T12:06:38.574Z,5.80
2018-02-22T12:09:07.917Z,6.13
2018-02-22T12:11:36.168Z,6.70
2018-02-22T12:14:04.418Z,7.30
2018-02-22T12:16:32.706Z,5.87
2018-02-22T12:19:04.932Z,5.20
2018-02-22T12:21:33.184Z,6.03
2018-02-22T12:24:01.669Z,6.90
2018-02-22T12:26:29.907Z,5.83
2018-02-22T12:28:59.090Z,5.70
2018-02-22T12:31:27.342Z,6.17
2018-02-22T12:33:55.617Z,5.87
2018-02-22T12:36:24.083Z,6.47
2018-02-22T12:38:54.534Z,6.50
2018-02-22T12:41:26.939Z,7.00
2018-02-22T12:43:55.990Z,5.97
2018-02-22T12:46:24.213Z,6.57
2018-02-22T12:48:52.730Z,5.93
2018-02-22T12:51:21.034Z,6.27
2018-02-22T12:53:49.418Z,6.30
2018-02-22T12:56:17.857Z,6.10
2018-02-22T12:58:46.210Z,6.40
2018-02-22T13:01:15.230Z,5.60
2018-02-22T13:06:18.076Z,7.40
2018-02-22T13:08:46.533Z,7.20
2018-02-22T13:11:14.835Z,7.00
2018-02-22T13:13:43.094Z,6.20
2018-02-22T13:16:11.368Z,6.80
2018-02-22T13:18:40.595Z,6.53
2018-02-22T13:21:08.851Z,6.50
2018-02-22T13:23:37.171Z,7.13
2018-02-22T13:26:07.566Z,7.47
2018-02-22T13:28:35.952Z,7.63
2018-02-22T13:31:04.420Z,7.70
2018-02-22T13:33:44.443Z,7.70
2018-02-22T13:36:12.715Z,6.90
2018-02-22T13:39:02.727Z,7.87
2018-02-22T13:41:30.993Z,7.13
2018-02-22T13:44:12.817Z,7.40
2018-02-22T13:46:42.291Z,7.60
2018-02-22T13:49:22.586Z,7.43
2018-02-22T13:51:50.855Z,8.03
2018-02-22T13:54:19.368Z,8.47
2018-02-22T13:57:00.466Z,8.70
2018-02-22T13:59:30.072Z,8.13
2018-02-22T14:02:11.220Z,8.37
2018-02-22T14:04:40.507Z,7.80
2018-02-22T14:07:10.600Z,8.53
2018-02-22T14:09:39.119Z,8.67
2018-02-22T14:12:08.135Z,8.20
2018-02-22T14:14:36.727Z,7.67
2018-02-22T14:17:05.705Z,9.27
2018-02-22T14:19:34.654Z,8.97
2018-02-22T14:22:02.974Z,9.73
2018-02-22T14:24:32.214Z,9.47
2018-02-22T14:27:00.538Z,8.43
2018-02-22T14:29:29.066Z,9.27
2018-02-22T14:31:59.144Z,8.23
2018-02-22T14:34:27.951Z,9.50
2018-02-22T14:36:56.208Z,8.80
2018-02-22T14:39:24.613Z,10.03
2018-02-22T14:41:55.106Z,10.27
2018-02-22T14:44:23.483Z,9.30
2018-02-22T14:46:51.939Z,9.70
2018-02-22T14:49:22.395Z,10.53
2018-02-22T14:51:50.648Z,9.83
2018-02-22T14:54:19.338Z,10.87
2018-02-22T14:56:47.584Z,10.73
2018-02-22T14:59:17.427Z,10.07
2018-02-22T15:01:46.682Z,10.27
2018-02-22T15:04:15.056Z,9.60
2018-02-22T15:06:43.302Z,8.70
2018-02-22T15:09:12.496Z,10.03
2018-02-22T15:11:40.874Z,10.30
2018-02-22T15:14:09.127Z,9.50
2018-02-22T15:16:37.405Z,10.20
2018-02-22T15:19:05.902Z,10.30
2018-02-22T15:21:35.675Z,9.30
2018-02-22T15:24:04.960Z,11.10
2018-02-22T15:26:33.298Z,10.17
2018-02-22T15:29:01.691Z,10.03
2018-02-22T15:31:31.350Z,10.70
2018-02-22T15:33:59.798Z,10.00
2018-02-22T15:36:28.055Z,9.77
2018-02-22T15:38:56.454Z,9.97
2018-02-22T15:41:25.475Z,10.00
2018-02-22T15:43:53.735Z,10.83
2018-02-22T15:46:22.016Z,9.63
2018-02-22T15:48:50.266Z,8.43
2018-02-22T15:51:19.326Z,8.87
2018-02-22T15:53:48.662Z,9.23
2018-02-22T15:56:17.839Z,9.23
2018-02-22T15:58:46.411Z,10.10
2018-02-22T16:01:14.988Z,9.73
2018-02-22T16:03:45.438Z,9.57
2018-02-22T16:06:13.822Z,9.60
2018-02-22T16:08:42.218Z,10.00
2018-02-22T16:11:12.607Z,9.40
2018-02-22T16:13:40.843Z,7.83
2018-02-22T16:16:09.374Z,9.60
2018-02-22T16:18:37.624Z,8.57
2018-02-22T16:21:06.243Z,9.20
2018-02-22T16:23:35.569Z,10.13
2018-02-22T16:26:04.843Z,9.30
2018-02-22T16:28:33.217Z,8.93
2018-02-22T16:31:01.627Z,9.47
2018-02-22T16:33:32.734Z,9.10
2018-02-22T16:36:02.555Z,9.30
2018-02-22T16:38:30.843Z,8.30
2018-02-22T16:40:59.161Z,9.40
2018-02-22T16:43:27.555Z,8.80
2018-02-22T16:45:56.825Z,9.70
2018-02-22T16:48:26.621Z,10.23
2018-02-22T16:50:55.110Z,9.57
2018-02-22T16:53:24.136Z,9.50
2018-02-22T16:55:54.611Z,10.50
2018-02-22T16:58:23.362Z,9.93
2018-02-22T17:00:51.666Z,9.27
2018-02-22T17:03:20.046Z,8.23
2018-02-22T17:05:48.482Z,8.27
2018-02-22T17:08:17.478Z,9.67
2018-02-22T17:10:46.308Z,8.00
2018-02-22T17:13:14.603Z,9.50
2018-02-22T17:15:42.867Z,9.23
2018-02-22T17:18:11.248Z,9.77
2018-02-22T17:20:39.730Z,10.17
2018-02-22T17:23:08.034Z,9.37
2018-02-22T17:25:36.551Z,8.27
2018-02-22T17:28:10.402Z,8.97
2018-02-22T17:30:44.420Z,9.13
2018-02-22T17:33:12.923Z,9.70
2018-02-22T17:35:43.694Z,9.90
2018-02-22T17:38:12.855Z,11.33
2018-02-22T17:40:41.189Z,7.90
2018-02-22T17:43:11.635Z,10.67
2018-02-22T17:45:43.246Z,11.00
2018-02-22T17:48:12.702Z,10.00
2018-02-22T17:50:41.067Z,9.80
2018-02-22T17:53:09.483Z,9.13
2018-02-22T17:55:39.850Z,9.27
2018-02-22T17:58:09.269Z,9.53
2018-02-22T18:00:39.599Z,9.90
2018-02-22T18:03:07.878Z,9.23
2018-02-22T18:05:36.255Z,9.83
2018-02-22T18:08:04.831Z,8.30
2018-02-22T18:10:33.076Z,9.73
2018-02-22T18:13:01.521Z,8.20
2018-02-22T18:15:29.938Z,9.30
2018-02-22T18:17:59.387Z,9.53
2018-02-22T18:20:27.767Z,9.13
2018-02-22T18:22:56.242Z,9.50
2018-02-22T18:25:24.597Z,8.50
2018-02-22T18:27:52.895Z,9.47
2018-02-22T18:30:21.312Z,8.23
2018-02-22T18:32:51.509Z,10.60
2018-02-22T18:35:19.877Z,10.33
2018-02-22T18:37:58.835Z,9.20
2018-02-22T18:40:33.667Z,8.07
2018-02-22T18:46:05.031Z,7.30
2018-02-22T18:48:33.415Z,8.10
2018-02-22T18:51:02.435Z,8.40
2018-02-22T18:53:30.746Z,7.70
2018-02-22T18:55:59.522Z,8.00
2018-02-22T18:58:27.831Z,8.17
2018-02-22T19:00:56.205Z,8.40
2018-02-22T19:03:24.606Z,7.93
2018-02-22T19:05:52.964Z,7.90
2018-02-22T19:08:25.371Z,8.20
2018-02-22T19:10:54.394Z,8.17
2018-02-22T19:13:23.318Z,8.10
2018-02-22T19:15:52.088Z,7.20
2018-02-22T19:18:20.390Z,8.60
2018-02-22T19:20:48.771Z,8.13
2018-02-22T19:23:17.159Z,8.10
2018-02-22T19:25:45.832Z,7.30
2018-02-22T19:28:14.211Z,6.87
2018-02-22T19:30:42.623Z,7.90
2018-02-22T19:33:11.639Z,7.13
2018-02-22T19:35:41.081Z,8.40
2018-02-22T19:38:10.992Z,7.90
2018-02-22T19:40:39.221Z,8.73
2018-02-22T19:43:07.555Z,8.20
2018-02-22T19:45:39.654Z,7.33
2018-02-22T19:48:09.847Z,7.63
2018-02-22T19:50:38.274Z,7.93
2018-02-22T19:53:06.642Z,7.80
2018-02-22T19:55:39.594Z,8.17
2018-02-22T19:58:08.088Z,7.33
2018-02-22T20:00:36.354Z,7.87
2018-02-22T20:03:04.737Z,8.13
2018-02-22T20:05:34.051Z,7.53
2018-02-22T20:08:02.415Z,7.83
2018-02-22T20:10:30.786Z,7.60
2018-02-22T20:12:59.251Z,7.47
2018-02-22T20:15:27.554Z,7.13
2018-02-22T20:18:00.947Z,7.23
2018-02-22T20:20:30.214Z,7.60
2018-02-22T20:22:58.570Z,8.53
2018-02-22T20:25:31.000Z,8.33
2018-02-22T20:27:59.587Z,7.70
2018-02-22T20:30:29.803Z,7.20
2018-02-22T20:32:58.296Z,7.63
2018-02-22T20:35:26.603Z,7.90
2018-02-22T20:37:55.666Z,7.80
2018-02-22T20:40:24.054Z,7.63
2018-02-22T20:42:52.319Z,8.17
2018-02-22T20:45:20.702Z,7.63
2018-02-22T20:47:53.148Z,7.33
2018-02-22T20:50:21.751Z,8.13
2018-02-22T20:52:55.651Z,8.27
2018-02-22T20:55:44.231Z,8.27
2018-02-22T20:58:13.195Z,7.50
2018-02-22T21:00:41.424Z,8.73
2018-02-22T21:03:15.732Z,8.00
2018-02-22T21:05:43.975Z,8.40
2018-02-22T21:08:12.358Z,8.20
2018-02-22T21:10:40.765Z,8.77
2018-02-22T21:13:09.778Z,9.03
2018-02-22T21:15:38.110Z,8.20
2018-02-22T21:18:11.183Z,8.13
2018-02-22T21:20:40.430Z,8.17
2018-02-22T21:23:08.770Z,8.30
2018-02-22T21:25:37.191Z,9.13
2018-02-22T21:28:06.203Z,7.87
2018-02-22T21:30:34.467Z,8.23
2018-02-22T21:33:02.927Z,8.50
2018-02-22T21:35:31.939Z,7.47
2018-02-22T21:38:03.346Z,8.40
2018-02-22T21:40:36.718Z,7.20
2018-02-22T21:43:04.961Z,7.97
2018-02-22T21:45:33.392Z,8.30
2018-02-22T21:48:01.668Z,8.10
2018-02-22T21:50:29.905Z,8.87
2018-02-22T21:52:58.155Z,7.70
2018-02-22T21:55:26.635Z,7.43
2018-02-22T21:57:55.654Z,7.07
2018-02-22T22:00:23.984Z,6.73
2018-02-22T22:02:52.423Z,7.57
2018-02-22T22:05:20.783Z,8.00
2018-02-22T22:07:51.202Z,8.40
2018-02-22T22:10:19.470Z,7.77
2018-02-22T22:12:47.715Z,7.43
2018-02-22T22:15:15.950Z,7.23
2018-02-22T22:17:44.226Z,8.27
2018-02-22T22:20:12.550Z,8.43
2018-02-22T22:22:40.802Z,7.90
2018-02-22T22:25:09.118Z,7.40
2018-02-22T22:27:37.424Z,7.70
2018-02-22T22:30:05.637Z,8.03
2018-02-22T22:32:33.915Z,8.47
2018-02-22T22:35:02.520Z,7.30
2018-02-22T22:37:30.769Z,8.07
2018-02-22T22:40:00.235Z,6.90
2018-02-22T22:42:29.311Z,8.53
2018-02-22T22:44:58.326Z,8.13
2018-02-22T22:47:27.069Z,7.90
2018-02-22T22:49:55.310Z,7.90
2018-02-22T22:52:23.555Z,7.50
2018-02-22T22:54:52.590Z,7.33
2018-02-22T22:57:20.833Z,7.67
2018-02-22T22:59:49.079Z,8.30
2018-02-22T23:02:18.405Z,7.77
2018-02-22T23:04:47.438Z,7.90
2018-02-22T23:07:15.678Z,8.00
2018-02-22T23:09:44.017Z,8.30
2018-02-22T23:12:12.263Z,8.20
2018-02-22T23:14:40.511Z,9.43
2018-02-22T23:17:09.334Z,7.70
2018-02-22T23:19:37.575Z,7.37
2018-02-22T23:22:05.823Z,8.60
2018-02-22T23:24:34.227Z,8.93
2018-02-22T23:27:02.466Z,7.70
2018-02-22T23:29:30.712Z,8.10
2018-02-22T23:31:59.327Z,7.70
2018-02-22T23:34:27.571Z,8.60
2018-02-22T23:36:55.823Z,8.20
2018-02-22T23:39:24.098Z,8.63
2018-02-22T23:42:08.894Z,8.83
2018-02-22T23:44:37.162Z,9.07
2018-02-22T23:47:05.424Z,8.20
2018-02-22T23:49:33.659Z,8.60
2018-02-22T23:52:02.322Z,7.87
2018-02-22T23:54:30.582Z,9.50
2018-02-22T23:56:58.834Z,8.77
2018-02-22T23:59:27.114Z,8.67
